Time;durP1;ratioP1;P1;durP2;ratioP2;P2;SDS_P1;SDS_P2;PMS_P1;PMS_P2;Temp;Humidity;BMP_temperature;BMP_pressure;BME280_temperature;BME280_humidity;BME280_pressure;Samples;Min_cycle;Max_cycle;Signal;HPM_P1;HPM_P2
2023/09/23 00:01:44;;;;;;;9.77;7.63;;;;;;;15.60;100.00;101245.31;5051740;28;20033;-66
2023/09/23 00:04:10;;;;;;;12.07;7.90;;;;;;;15.59;100.00;101242.81;5050469;28;20064;-68
2023/09/23 00:06:37;;;;;;;11.07;8.67;;;;;;;15.68;100.00;101255.16;5051676;28;20025;-66
2023/09/23 00:09:04;;;;;;;10.87;7.80;;;;;;;15.54;100.00;101242.50;5051787;28;20108;-67
2023/09/23 00:11:30;;;;;;;10.87;8.50;;;;;;;15.62;100.00;101247.84;5051726;28;20033;-67
2023/09/23 00:13:55;;;;;;;13.50;10.00;;;;;;;15.37;100.00;101215.03;5050461;28;20102;-67
2023/09/23 00:16:21;;;;;;;12.47;7.40;;;;;;;15.63;100.00;101253.03;5051683;28;20124;-66
2023/09/23 00:18:47;;;;;;;15.30;8.10;;;;;;;15.64;100.00;101237.75;5052187;28;20029;-66
2023/09/23 00:21:13;;;;;;;9.80;8.80;;;;;;;15.60;100.00;101237.28;5051741;28;20528;-66
2023/09/23 00:23:39;;;;;;;8.83;7.33;;;;;;;15.50;100.00;101220.56;5051787;28;20028;-65
2023/09/23 00:26:06;;;;;;;11.13;7.93;;;;;;;15.54;100.00;101227.25;5050560;28;20040;-67
2023/09/23 00:28:33;;;;;;;11.53;8.33;;;;;;;15.52;100.00;101237.31;5051902;28;20419;-65
2023/09/23 00:31:05;;;;;;;10.57;7.80;;;;;;;15.49;100.00;101240.38;5051533;28;20309;-67
2023/09/23 00:33:37;;;;;;;10.67;8.00;;;;;;;15.38;100.00;101224.75;5051574;28;20048;-66
2023/09/23 00:36:05;;;;;;;10.80;7.13;;;;;;;15.49;100.00;101243.91;5050650;28;20127;-68
2023/09/23 00:38:32;;;;;;;9.85;8.77;;;;;;;15.39;100.00;101223.72;5051538;28;20115;-66
2023/09/23 00:40:58;;;;;;;11.40;7.30;;;;;;;15.43;100.00;101222.34;5051463;28;20033;-68
2023/09/23 00:43:23;;;;;;;12.43;7.80;;;;;;;15.48;100.00;101238.72;5052723;28;20025;-66
2023/09/23 00:45:52;;;;;;;11.27;7.60;;;;;;;15.46;100.00;101221.97;5055893;28;20064;-66
2023/09/23 00:48:18;;;;;;;8.50;7.30;;;;;;;15.44;100.00;101229.38;5055360;28;20067;-65
2023/09/23 00:50:46;;;;;;;9.37;8.37;;;;;;;15.31;100.00;101188.88;5053960;28;20082;-66
2023/09/23 00:53:13;;;;;;;10.77;8.27;;;;;;;15.44;100.00;101224.00;5053930;28;20112;-66
2023/09/23 00:55:47;;;;;;;12.77;7.97;;;;;;;15.51;100.00;101238.34;5055065;28;20028;-66
2023/09/23 00:58:20;;;;;;;10.50;7.57;;;;;;;15.45;100.00;101228.34;5054818;28;20476;-67
2023/09/23 01:00:46;;;;;;;10.90;8.30;;;;;;;15.63;100.00;101226.19;5055335;28;20029;-66
2023/09/23 01:03:12;;;;;;;8.87;7.97;;;;;;;15.64;100.00;101219.81;5055293;28;20056;-66
2023/09/23 01:05:41;;;;;;;13.90;7.70;;;;;;;15.59;100.00;101208.75;5055063;28;20067;-67
2023/09/23 01:08:11;;;;;;;10.50;7.77;;;;;;;15.61;100.00;101220.19;5054929;28;20032;-68
2023/09/23 01:10:37;;;;;;;10.33;7.20;;;;;;;15.51;100.00;101203.44;5054883;28;20116;-66
2023/09/23 01:13:06;;;;;;;8.63;7.60;;;;;;;15.64;100.00;101227.84;5054836;28;20116;-66
2023/09/23 01:15:32;;;;;;;15.00;8.23;;;;;;;15.55;100.00;101207.44;5054858;28;20029;-67
2023/09/23 01:17:58;;;;;;;11.73;8.60;;;;;;;15.47;100.00;101204.84;5055036;28;20037;-67
2023/09/23 01:20:25;;;;;;;12.40;7.83;;;;;;;15.43;100.00;101222.34;5054636;28;20048;-66
2023/09/23 01:22:54;;;;;;;14.33;9.20;;;;;;;15.46;100.00;101230.00;5054676;28;20357;-67
2023/09/23 01:25:20;;;;;;;13.03;8.00;;;;;;;15.46;100.00;101222.78;5054368;28;20487;-67
2023/09/23 01:27:45;;;;;;;11.10;8.43;;;;;;;15.50;100.00;101215.22;5054379;28;20037;-67
2023/09/23 01:30:12;;;;;;;9.87;7.93;;;;;;;14.86;100.00;101118.25;5054913;28;20137;-67
2023/09/23 01:32:50;;;;;;;12.53;7.97;;;;;;;15.31;100.00;101199.63;5055052;28;20495;-68
2023/09/23 01:35:20;;;;;;;9.53;7.70;;;;;;;15.33;100.00;101200.31;5054464;28;20040;-68
2023/09/23 01:37:47;;;;;;;10.57;8.77;;;;;;;15.35;100.00;101207.16;5053187;28;20095;-67
2023/09/23 01:40:19;;;;;;;9.10;8.20;;;;;;;15.42;100.00;101218.81;5054460;28;20025;-69
2023/09/23 01:42:48;;;;;;;12.63;8.50;;;;;;;15.16;100.00;101178.16;5053429;28;20499;-67
2023/09/23 01:45:15;;;;;;;11.80;8.90;;;;;;;15.37;100.00;101223.91;5054433;28;20133;-67
2023/09/23 01:47:41;;;;;;;15.73;9.77;;;;;;;15.33;100.00;101213.72;5054452;28;20103;-66
2023/09/23 01:50:11;;;;;;;12.07;7.80;;;;;;;15.29;100.00;101212.38;5054195;28;20021;-65
2023/09/23 01:52:38;;;;;;;10.93;8.90;;;;;;;15.30;100.00;101214.06;5057665;28;20468;-66
2023/09/23 01:55:05;;;;;;;11.53;8.30;;;;;;;15.25;100.00;101205.72;5056787;28;20104;-68
2023/09/23 01:57:33;;;;;;;10.40;8.07;;;;;;;15.17;100.00;101186.00;5054144;28;20024;-67
2023/09/23 02:00:13;;;;;;;9.88;8.85;;;;;;;15.18;100.00;101187.69;5054403;28;20473;-67
2023/09/23 02:02:38;;;;;;;10.47;8.27;;;;;;;14.96;100.00;101152.84;5054154;28;20055;-67
2023/09/23 02:05:05;;;;;;;12.10;9.20;;;;;;;15.16;100.00;101192.41;5053721;28;20036;-66
2023/09/23 02:07:31;;;;;;;13.13;8.17;;;;;;;15.10;100.00;101171.66;5052891;28;20120;-69
2023/09/23 02:09:56;;;;;;;10.77;8.97;;;;;;;15.21;100.00;101194.53;5053975;28;20476;-66
2023/09/23 02:12:23;;;;;;;14.97;9.97;;;;;;;15.26;100.00;101191.28;5053953;28;20860;-66
2023/09/23 02:14:50;;;;;;;10.77;8.50;;;;;;;15.25;100.00;101187.78;5053727;28;20376;-67
2023/09/23 02:17:16;;;;;;;14.60;8.60;;;;;;;15.11;100.00;101170.66;5052177;28;20029;-67
2023/09/23 02:19:42;;;;;;;11.07;8.70;;;;;;;15.09;100.00;101174.53;5053880;28;20516;-66
2023/09/23 02:22:08;;;;;;;15.03;8.60;;;;;;;15.13;100.00;101182.03;5053862;28;20163;-66
2023/09/23 02:24:36;;;;;;;11.97;8.67;;;;;;;15.11;100.00;101185.91;5053619;28;20068;-67
2023/09/23 02:27:03;;;;;;;8.63;7.73;;;;;;;15.11;100.00;101184.06;5053414;28;20029;-68
2023/09/23 02:29:33;;;;;;;10.03;7.77;;;;;;;15.07;100.00;101161.31;5053311;28;20102;-67
2023/09/23 02:32:00;;;;;;;30.03;9.77;;;;;;;15.00;100.00;101149.63;5053129;28;20076;-67
2023/09/23 02:34:28;;;;;;;9.40;7.75;;;;;;;15.16;100.00;101181.66;5053554;28;20087;-67
2023/09/23 02:36:54;;;;;;;12.38;8.70;;;;;;;15.15;100.00;101182.69;5053182;28;20040;-67
2023/09/23 02:39:20;;;;;;;8.67;7.37;;;;;;;15.15;100.00;101177.31;5053303;28;20029;-67
2023/09/23 02:41:50;;;;;;;13.63;9.60;;;;;;;15.03;100.00;101157.28;5053051;28;20029;-66
2023/09/23 02:44:22;;;;;;;9.40;8.43;;;;;;;15.05;100.00;101176.75;5053179;28;20024;-67
2023/09/23 02:46:49;;;;;;;12.00;8.57;;;;;;;14.95;100.00;101168.09;5053152;28;20496;-68
2023/09/23 02:49:16;;;;;;;15.10;9.37;;;;;;;14.87;100.00;101170.88;5053357;28;20197;-66
2023/09/23 02:51:43;;;;;;;10.77;8.43;;;;;;;14.79;100.00;101149.50;5053496;28;20472;-66
2023/09/23 02:54:11;;;;;;;12.57;8.30;;;;;;;14.79;100.00;101169.09;5052762;28;20469;-68
2023/09/23 02:56:37;;;;;;;14.33;11.40;;;;;;;14.79;100.00;101157.53;5052941;28;20037;-66
2023/09/23 02:59:13;;;;;;;9.20;8.27;;;;;;;14.81;100.00;101169.75;5085166;28;20364;-67
2023/09/23 03:01:45;;;;;;;13.83;11.03;;;;;;;14.74;100.00;101170.63;5052927;28;20036;-66
2023/09/23 03:04:16;;;;;;;11.93;9.33;;;;;;;14.62;100.00;101150.63;5052994;28;20170;-66
2023/09/23 03:06:49;;;;;;;11.37;9.83;;;;;;;14.70;100.00;101174.69;5053146;28;20423;-66
2023/09/23 03:09:24;;;;;;;14.87;10.23;;;;;;;14.64;100.00;101164.69;5051397;28;20087;-67
2023/09/23 03:11:56;;;;;;;12.30;10.23;;;;;;;14.69;100.00;101178.38;5052724;28;20033;-66
2023/09/23 03:14:25;;;;;;;22.90;10.50;;;;;;;14.65;100.00;101174.38;5052564;28;20060;-68
2023/09/23 03:16:53;;;;;;;15.00;9.93;;;;;;;14.67;100.00;101172.38;5051261;28;20024;-67
2023/09/23 03:19:24;;;;;;;;;;;;;;;14.71;100.00;101176.34;5051790;28;20056;-66
2023/09/23 03:21:57;;;;;;;12.60;10.07;;;;;;;14.68;100.00;101174.84;5052379;28;19919;-67
2023/09/23 03:24:28;;;;;;;18.77;10.93;;;;;;;14.35;100.00;101134.03;5052740;28;20029;-66
2023/09/23 03:26:56;;;;;;;14.73;9.60;;;;;;;14.60;100.00;101172.25;5052285;28;20346;-66
2023/09/23 03:29:28;;;;;;;13.88;9.25;;;;;;;14.49;100.00;101168.16;5052187;28;20082;-65
2023/09/23 03:31:55;;;;;;;15.97;9.93;;;;;;;14.54;100.00;101179.16;5051014;28;20053;-66
2023/09/23 03:34:22;;;;;;;11.97;9.93;;;;;;;14.52;100.00;101175.84;5052582;28;20090;-66
2023/09/23 03:36:47;;;;;;;10.30;9.17;;;;;;;14.53;100.00;101177.50;5050868;28;20041;-68
2023/09/23 03:39:13;;;;;;;12.70;9.67;;;;;;;14.39;100.00;101143.38;5052244;28;20468;-66
2023/09/23 03:41:40;;;;;;;13.17;10.13;;;;;;;14.49;100.00;101173.50;5052292;28;20108;-65
2023/09/23 03:44:07;;;;;;;11.73;10.60;;;;;;;14.54;100.00;101176.47;5050978;28;20368;-66
2023/09/23 03:46:33;;;;;;;11.43;9.20;;;;;;;14.51;100.00;101179.53;5052114;28;20029;-68
2023/09/23 03:49:00;;;;;;;12.20;10.27;;;;;;;14.46;100.00;101179.22;5051776;28;20027;-66
2023/09/23 03:51:26;;;;;;;15.40;9.83;;;;;;;14.27;100.00;101152.84;5051790;28;20029;-66
2023/09/23 03:53:52;;;;;;;14.93;9.73;;;;;;;14.48;100.00;101181.72;5051947;28;20530;-66
2023/09/23 03:56:21;;;;;;;18.63;11.17;;;;;;;14.46;100.00;101187.28;5052056;28;20032;-65
2023/09/23 03:58:46;;;;;;;12.87;10.07;;;;;;;14.32;100.00;101149.63;5051899;28;20057;-66
2023/09/23 04:01:15;;;;;;;13.07;10.93;;;;;;;14.51;100.00;101178.69;5051997;28;20044;-66
2023/09/23 04:03:41;;;;;;;;;;;;;;;14.58;100.00;101182.31;5058654;28;20060;-66
2023/09/23 04:06:06;;;;;;;14.00;9.57;;;;;;;14.44;100.00;101170.50;5059757;28;19908;-66
2023/09/23 04:08:32;;;;;;;12.20;10.90;;;;;;;14.43;100.00;101166.16;5055474;28;20032;-68
2023/09/23 04:11:05;;;;;;;14.10;10.70;;;;;;;14.55;100.00;101178.16;5052361;28;20091;-68
2023/09/23 04:13:31;;;;;;;11.43;10.33;;;;;;;14.43;100.00;101158.13;5051705;28;20123;-66
2023/09/23 04:16:00;;;;;;;12.97;10.70;;;;;;;14.29;100.00;101137.44;5051565;28;20029;-67
2023/09/23 04:18:30;;;;;;;14.33;10.13;;;;;;;14.58;100.00;101171.59;5053258;28;20048;-68
2023/09/23 04:20:57;;;;;;;11.20;9.37;;;;;;;14.51;100.00;101160.75;5055975;28;20021;-69
2023/09/23 04:23:22;;;;;;;11.10;8.53;;;;;;;14.56;100.00;101155.69;5056194;28;20555;-69
2023/09/23 04:25:49;;;;;;;11.83;9.87;;;;;;;14.60;100.00;101164.22;5054772;28;20103;-70
2023/09/23 04:28:16;;;;;;;14.67;9.60;;;;;;;14.67;100.00;101175.03;5054430;28;20037;-67
2023/09/23 04:30:42;;;;;;;14.40;9.33;;;;;;;14.63;100.00;101160.34;5055764;28;20029;-66
2023/09/23 04:33:08;;;;;;;16.97;9.90;;;;;;;14.69;100.00;101171.16;5055622;28;20048;-67
2023/09/23 04:35:37;;;;;;;17.93;10.70;;;;;;;14.72;100.00;101172.66;5054428;28;20075;-69
2023/09/23 04:38:03;;;;;;;;;;;;;;;14.75;100.00;101166.97;5056172;28;20094;-67
2023/09/23 04:40:28;;;;;;;12.80;10.00;;;;;;;14.73;100.00;101158.22;5054410;28;19952;-69
2023/09/23 04:42:54;;;;;;;13.03;10.40;;;;;;;14.45;100.00;101113.22;5055251;28;20052;-69
2023/09/23 04:45:20;;;;;;;12.97;10.57;;;;;;;14.75;100.00;101158.91;5055154;28;20353;-69
2023/09/23 04:47:50;;;;;;;18.63;10.57;;;;;;;14.67;100.00;101138.34;5055317;28;20028;-66
2023/09/23 04:50:17;;;;;;;13.93;8.90;;;;;;;14.66;100.00;101141.22;5054169;28;20528;-68
2023/09/23 04:52:44;;;;;;;20.00;9.00;;;;;;;14.77;100.00;101160.41;5054992;28;20029;-66
2023/09/23 04:55:11;;;;;;;11.43;9.63;;;;;;;14.51;100.00;101112.53;5055941;28;20056;-69
2023/09/23 04:57:36;;;;;;;16.50;9.87;;;;;;;14.76;100.00;101141.81;5055054;28;20040;-71
2023/09/23 05:00:04;;;;;;;10.00;7.57;;;;;;;14.75;100.00;101140.97;5053882;28;20341;-68
2023/09/23 05:02:31;;;;;;;13.40;9.80;;;;;;;14.81;100.00;101150.97;5054770;28;20071;-69
2023/09/23 05:04:57;;;;;;;13.33;9.83;;;;;;;14.91;100.00;101161.44;5054787;28;20053;-67
2023/09/23 05:07:26;;;;;;;13.23;10.47;;;;;;;14.88;100.00;101156.44;5054880;28;20048;-67
2023/09/23 05:09:55;;;;;;;13.97;9.40;;;;;;;14.92;100.00;101163.09;5054914;28;20490;-70
2023/09/23 05:12:21;;;;;;;19.97;9.83;;;;;;;15.00;100.00;101170.25;5054981;28;20028;-68
2023/09/23 05:14:47;;;;;;;13.20;9.13;;;;;;;14.95;100.00;101151.19;5053690;28;20029;-68
2023/09/23 05:17:15;;;;;;;12.87;9.50;;;;;;;15.05;100.00;101173.25;5054644;28;20021;-65
2023/09/23 05:19:42;;;;;;;15.07;8.80;;;;;;;15.07;100.00;101169.34;5054561;28;20392;-66
2023/09/23 05:22:10;;;;;;;14.77;9.37;;;;;;;15.09;100.00;101170.00;5054323;28;20028;-68
2023/09/23 05:24:37;;;;;;;14.10;9.93;;;;;;;15.04;100.00;101153.63;5052964;28;20021;-67
2023/09/23 05:27:03;;;;;;;13.03;9.03;;;;;;;15.17;100.00;101167.22;5054310;28;20735;-68
2023/09/23 05:29:29;;;;;;;13.77;8.73;;;;;;;15.12;100.00;101158.91;5054520;28;20055;-70
2023/09/23 05:31:54;;;;;;;10.83;9.57;;;;;;;15.19;100.00;101156.31;5054208;28;20102;-66
2023/09/23 05:34:23;;;;;;;12.60;9.63;;;;;;;15.30;100.00;101181.84;5053512;28;20116;-70
2023/09/23 05:36:49;;;;;;;13.87;8.50;;;;;;;15.08;100.00;101133.47;5053272;28;20083;-67
2023/09/23 05:39:19;;;;;;;10.73;8.83;;;;;;;15.37;100.00;101175.59;5052983;28;20021;-69
2023/09/23 05:41:47;;;;;;;10.40;8.30;;;;;;;15.35;100.00;101168.75;5055894;28;20441;-68
2023/09/23 05:44:13;;;;;;;16.40;9.00;;;;;;;15.45;100.00;101177.34;5056015;28;20407;-68
2023/09/23 05:46:40;;;;;;;13.97;10.60;;;;;;;15.50;100.00;101172.25;5051283;28;20060;-68
2023/09/23 05:49:08;;;;;;;10.23;7.43;;;;;;;15.44;100.00;101156.91;5054714;28;20029;-66
2023/09/23 05:51:34;;;;;;;15.98;8.40;;;;;;;15.47;100.00;101140.41;5053569;28;20392;-65
2023/09/23 05:54:01;;;;;;;18.00;9.50;;;;;;;15.63;100.00;101161.75;5053296;28;20020;-66
2023/09/23 05:56:27;;;;;;;21.73;9.40;;;;;;;15.58;100.00;101142.66;5053511;28;20439;-67
2023/09/23 05:58:53;;;;;;;9.57;8.40;;;;;;;15.63;100.00;101134.91;5055634;28;20052;-66
2023/09/23 06:01:18;;;;;;;14.13;9.57;;;;;;;15.66;100.00;101134.53;5058414;28;20025;-66
2023/09/23 06:03:44;;;;;;;20.40;8.97;;;;;;;15.67;100.00;101128.13;5057987;28;20020;-64
2023/09/23 06:06:11;;;;;;;13.90;8.90;;;;;;;15.75;100.00;101140.63;5056174;28;20025;-65
2023/09/23 06:08:40;;;;;;;16.30;8.87;;;;;;;15.69;100.00;101112.66;5058150;28;20521;-68
2023/09/23 06:11:05;;;;;;;13.40;9.27;;;;;;;15.88;100.00;101132.72;5056934;28;20052;-66
2023/09/23 06:13:31;;;;;;;13.07;8.80;;;;;;;15.96;100.00;101150.59;5056976;28;20457;-65
2023/09/23 06:16:05;;;;;;;10.17;8.10;;;;;;;16.01;100.00;101138.25;5057073;28;20067;-69
2023/09/23 06:18:31;;;;;;;11.40;7.27;;;;;;;16.07;100.00;101142.03;5055951;28;20079;-65
2023/09/23 06:21:01;;;;;;;10.23;8.23;;;;;;;16.14;100.00;101148.31;5056782;28;20025;-66
2023/09/23 06:23:27;;;;;;;11.47;8.50;;;;;;;16.13;100.00;101133.22;5059306;28;20055;-66
2023/09/23 06:25:54;;;;;;;10.17;7.90;;;;;;;16.04;100.00;101116.38;5059391;28;20388;-67
2023/09/23 06:28:21;;;;;;;9.80;7.63;;;;;;;16.17;100.00;101137.19;5058412;28;20090;-67
2023/09/23 06:30:46;;;;;;;8.93;7.43;;;;;;;16.18;100.00;101128.09;5053375;28;20025;-67
2023/09/23 06:33:13;;;;;;;9.37;7.73;;;;;;;16.35;100.00;101151.03;5051405;28;20052;-67
2023/09/23 06:35:39;;;;;;;10.70;8.63;;;;;;;16.31;100.00;101133.63;5049669;28;20083;-67
2023/09/23 06:38:05;;;;;;;10.47;7.60;;;;;;;16.46;100.00;101151.53;5052652;28;20033;-68
2023/09/23 06:40:30;;;;;;;15.40;8.07;;;;;;;16.42;100.00;101140.34;5052263;28;20119;-68
2023/09/23 06:42:56;;;;;;;12.10;7.93;;;;;;;16.46;100.00;101125.50;5052781;28;20108;-67
2023/09/23 06:45:21;;;;;;;11.75;7.07;;;;;;;16.53;100.00;101139.03;5052853;28;20041;-67
2023/09/23 06:47:47;;;;;;;12.60;8.10;;;;;;;16.61;100.00;101145.09;5052570;28;20024;-69
2023/09/23 06:50:12;;;;;;;13.33;7.23;;;;;;;16.63;100.00;101137.66;5052182;28;20421;-67
2023/09/23 06:52:38;;;;;;;8.97;8.07;;;;;;;16.69;100.00;101138.78;5052521;28;20028;-69
2023/09/23 06:55:04;;;;;;;19.58;7.63;;;;;;;16.72;99.13;101135.69;5051972;28;20025;-68
2023/09/23 06:57:29;;;;;;;13.30;7.03;;;;;;;16.85;98.25;101143.06;5063344;28;20119;-69
2023/09/23 06:59:55;;;;;;;8.83;7.50;;;;;;;16.71;97.64;101118.72;5065132;28;20045;-72
2023/09/23 07:02:21;;;;;;;10.32;6.93;;;;;;;16.88;98.04;101138.13;5052319;28;20476;-74
2023/09/23 07:04:47;;;;;;;9.10;7.60;;;;;;;16.85;97.60;101118.84;5052995;28;20029;-71
2023/09/23 07:07:13;;;;;;;9.43;7.05;;;;;;;16.90;97.08;101130.69;5051398;28;20028;-70
2023/09/23 07:09:38;;;;;;;15.32;7.40;;;;;;;16.95;97.06;101130.94;5052653;28;20031;-68
2023/09/23 07:12:05;;;;;;;11.95;7.22;;;;;;;16.88;96.39;101107.69;5052230;28;20484;-69
2023/09/23 07:14:31;;;;;;;12.25;7.85;;;;;;;17.10;96.20;101143.47;5052293;28;20071;-70
2023/09/23 07:16:56;;;;;;;11.73;7.25;;;;;;;17.20;95.93;101146.63;5052640;28;20024;-69
2023/09/23 07:19:22;;;;;;;10.10;7.65;;;;;;;17.21;96.58;101134.84;5051917;28;20027;-70
2023/09/23 07:21:47;;;;;;;12.95;7.90;;;;;;;17.29;95.15;101142.75;5052313;28;20048;-68
2023/09/23 07:24:13;;;;;;;8.82;7.90;;;;;;;17.27;95.23;101134.88;5051916;28;20112;-73
2023/09/23 07:26:38;;;;;;;13.10;8.48;;;;;;;17.29;95.43;101113.97;5052667;28;20043;-70
2023/09/23 07:29:04;;;;;;;9.50;6.30;;;;;;;17.44;94.58;101129.19;5052286;28;20533;-72
2023/09/23 07:31:31;;;;;;;14.23;6.30;;;;;;;17.41;94.09;101126.91;5051963;28;20530;-67
2023/09/23 07:33:56;;;;;;;13.20;6.68;;;;;;;17.53;92.71;101141.44;5052030;28;20036;-68
2023/09/23 07:36:22;;;;;;;8.38;6.93;;;;;;;17.58;93.07;101131.75;5052279;28;20029;-71
2023/09/23 07:38:47;;;;;;;12.13;6.50;;;;;;;17.49;91.74;101106.00;5052362;28;20036;-66
2023/09/23 07:41:14;;;;;;;12.10;6.88;;;;;;;17.73;92.24;101136.22;5052064;28;20047;-68
2023/09/23 07:43:40;;;;;;;12.10;7.28;;;;;;;17.68;91.77;101114.44;5052114;28;20031;-71
2023/09/23 07:46:06;;;;;;;13.48;6.93;;;;;;;17.84;92.52;101135.63;5034065;28;20128;-69
2023/09/23 07:48:31;;;;;;;13.00;7.78;;;;;;;17.78;92.37;101113.03;5051851;28;20452;-67
2023/09/23 07:50:57;;;;;;;8.52;5.32;;;;;;;17.95;91.36;101126.97;5052037;28;20461;-67
2023/09/23 07:53:23;;;;;;;9.55;6.90;;;;;;;17.94;89.88;101111.84;5050841;28;20128;-65
2023/09/23 07:55:48;;;;;;;8.07;6.90;;;;;;;17.95;90.34;101100.03;5051921;28;20051;-67
2023/09/23 07:58:14;;;;;;;10.65;6.07;;;;;;;18.07;89.20;101114.56;5051686;28;20079;-67
2023/09/23 08:00:39;;;;;;;9.10;6.43;;;;;;;18.13;88.75;101115.63;5050014;28;20119;-66
2023/09/23 08:03:05;;;;;;;8.32;5.95;;;;;;;18.19;88.11;101112.09;5050152;28;20025;-67
2023/09/23 08:05:32;;;;;;;15.77;7.28;;;;;;;18.20;88.22;101109.19;5048983;28;20056;-65
2023/09/23 08:07:58;;;;;;;8.18;6.40;;;;;;;18.16;88.21;101086.38;5049648;28;20047;-67
2023/09/23 08:10:24;;;;;;;8.88;7.97;;;;;;;18.23;88.73;101087.25;5045584;28;20037;-66
2023/09/23 08:12:49;;;;;;;13.15;6.82;;;;;;;18.35;88.84;101110.91;5044455;28;20044;-67
2023/09/23 08:15:15;;;;;;;12.38;6.22;;;;;;;18.41;88.01;101096.59;5050679;28;20492;-66
2023/09/23 08:17:41;;;;;;;8.85;6.75;;;;;;;18.49;87.22;101102.59;5050901;28;20025;-66
2023/09/23 08:20:17;;;;;;;9.77;5.82;;;;;;;18.59;85.99;101102.22;5051688;28;20028;-67
2023/09/23 08:22:49;;;;;;;10.23;6.55;;;;;;;18.56;85.08;101081.06;5053367;28;20017;-65
2023/09/23 08:25:17;;;;;;;13.70;6.30;;;;;;;18.62;85.24;101092.88;5052535;28;20098;-67
2023/09/23 08:27:43;;;;;;;10.52;6.97;;;;;;;18.67;85.15;101088.53;5052830;28;20044;-65
2023/09/23 08:30:10;;;;;;;15.18;5.93;;;;;;;18.76;84.98;101097.25;5052327;28;20035;-67
2023/09/23 08:32:39;;;;;;;9.68;6.28;;;;;;;18.55;84.76;101041.63;5051157;28;20458;-67
2023/09/23 08:35:07;;;;;;;13.85;5.78;;;;;;;18.73;84.11;101062.59;5051606;28;20078;-69
2023/09/23 08:37:34;;;;;;;8.27;5.93;;;;;;;18.84;82.87;101070.06;5051916;28;20025;-70
2023/09/23 08:39:59;;;;;;;12.52;7.60;;;;;;;18.96;81.68;101079.19;5057550;28;20052;-70
2023/09/23 08:42:25;;;;;;;9.13;6.47;;;;;;;19.08;81.28;101084.75;5055619;28;20108;-69
2023/09/23 08:44:51;;;;;;;9.15;5.65;;;;;;;18.97;81.19;101055.72;5058111;28;20456;-69
2023/09/23 08:47:18;;;;;;;10.82;6.25;;;;;;;19.21;81.14;101084.75;5051714;28;20029;-69
2023/09/23 08:49:46;;;;;;;14.85;5.97;;;;;;;19.01;80.35;101035.38;5053420;28;20022;-70
2023/09/23 08:52:13;;;;;;;13.23;6.07;;;;;;;19.16;80.13;101054.84;5051527;28;20076;-70
2023/09/23 08:54:39;;;;;;;14.43;6.05;;;;;;;19.30;80.33;101051.06;5050309;28;20029;-71
2023/09/23 08:57:05;;;;;;;9.85;6.15;;;;;;;19.38;79.61;101063.53;5052657;28;20437;-71
2023/09/23 08:59:31;;;;;;;8.32;5.03;;;;;;;19.41;79.82;101050.41;5052636;28;20025;-69
2023/09/23 09:01:57;;;;;;;13.88;5.57;;;;;;;19.46;79.20;101056.00;5052670;28;20376;-68
2023/09/23 09:04:24;;;;;;;11.15;5.00;;;;;;;19.52;78.70;101042.69;5052927;28;20116;-66
2023/09/23 09:06:51;;;;;;;9.52;5.35;;;;;;;19.67;77.15;101051.38;5055074;28;20125;-69
2023/09/23 09:09:17;;;;;;;7.85;5.53;;;;;;;19.71;77.09;101041.81;5055336;28;20068;-65
2023/09/23 09:11:53;;;;;;;16.83;9.25;;;;;;;19.75;77.11;101043.84;5056190;28;20078;-68
2023/09/23 09:14:19;;;;;;;10.35;6.53;;;;;;;19.85;75.93;101048.78;5057065;28;20472;-66
2023/09/23 09:16:45;;;;;;;8.95;5.40;;;;;;;19.86;75.20;101039.63;5057270;28;20086;-65
2023/09/23 09:19:11;;;;;;;8.32;5.05;;;;;;;19.99;75.85;101050.38;5056351;28;20021;-69
2023/09/23 09:21:37;;;;;;;9.77;5.38;;;;;;;20.08;74.91;101045.53;5057310;28;20029;-68
2023/09/23 09:24:04;;;;;;;8.65;5.32;;;;;;;20.11;75.35;101037.81;5057233;28;20431;-67
2023/09/23 09:26:31;;;;;;;10.98;5.82;;;;;;;20.06;75.40;101029.53;5054788;28;20476;-65
2023/09/23 09:28:56;;;;;;;12.20;6.25;;;;;;;19.64;75.14;100939.13;5054717;28;20075;-67
2023/09/23 09:31:31;;;;;;;12.18;5.72;;;;;;;20.30;72.74;101029.78;5054450;28;20024;-67
2023/09/23 09:34:00;;;;;;;11.55;5.40;;;;;;;20.50;72.23;101038.56;5054544;28;20072;-68
2023/09/23 09:36:26;;;;;;;7.95;5.47;;;;;;;20.60;71.33;101041.63;5054473;28;20021;-66
2023/09/23 09:38:54;;;;;;;13.55;5.28;;;;;;;20.69;71.25;101024.03;5054226;28;20120;-68
2023/09/23 09:41:33;;;;;;;13.00;5.15;;;;;;;20.69;70.65;101017.81;5054966;28;20037;-67
2023/09/23 09:44:02;;;;;;;12.25;5.18;;;;;;;20.82;70.75;101016.88;5055038;28;20472;-67
2023/09/23 09:46:30;;;;;;;9.40;4.93;;;;;;;20.87;70.71;101019.72;5054565;28;20125;-68
2023/09/23 09:48:59;;;;;;;7.07;4.75;;;;;;;20.80;70.38;101002.69;5054516;28;20029;-68
2023/09/23 09:51:25;;;;;;;13.65;5.35;;;;;;;20.95;70.14;101024.84;5052896;28;20151;-67
2023/09/23 09:53:51;;;;;;;9.60;5.88;;;;;;;20.95;68.58;101000.47;5054181;28;20040;-68
2023/09/23 09:56:18;;;;;;;7.05;5.47;;;;;;;21.02;69.87;101006.63;5054581;28;20044;-68
2023/09/23 09:58:48;;;;;;;10.88;4.82;;;;;;;21.15;68.54;101020.03;5053129;28;20032;-66
2023/09/23 10:01:14;;;;;;;16.20;5.15;;;;;;;21.24;68.20;101021.41;5054046;28;20025;-66
2023/09/23 10:03:42;;;;;;;8.13;4.85;;;;;;;21.28;66.92;101016.38;5053885;28;20029;-67
2023/09/23 10:06:08;;;;;;;11.32;4.93;;;;;;;21.31;66.64;101019.44;5052586;28;20063;-67
2023/09/23 10:08:38;;;;;;;7.25;4.50;;;;;;;21.43;67.05;101024.13;5054216;28;20059;-68
2023/09/23 10:11:08;;;;;;;7.88;5.18;;;;;;;21.47;65.92;101028.03;5053768;28;20029;-67
2023/09/23 10:13:34;;;;;;;12.35;4.47;;;;;;;21.52;65.88;101014.59;5053671;28;20040;-68
2023/09/23 10:16:17;;;;;;;10.38;5.72;;;;;;;21.67;65.61;101015.00;5052796;28;20170;-67
2023/09/23 10:18:44;;;;;;;15.35;4.82;;;;;;;21.58;65.69;100995.53;5052669;28;20369;-67
2023/09/23 10:21:24;;;;;;;13.15;4.57;;;;;;;21.13;65.80;100927.34;5053531;28;20025;-67
2023/09/23 10:23:52;;;;;;;7.07;5.50;;;;;;;21.71;66.19;101010.81;5053638;28;20039;-68
2023/09/23 10:26:19;;;;;;;11.98;5.13;;;;;;;21.76;64.70;101002.81;5053405;28;20024;-69
2023/09/23 10:29:14;;;;;;;12.02;5.05;;;;;;;21.89;64.63;101018.88;5053332;28;20487;-67
2023/09/23 10:31:41;;;;;;;7.68;4.80;;;;;;;21.97;64.12;101001.44;5048671;28;20100;-68
2023/09/23 10:34:08;;;;;;;11.70;4.45;;;;;;;22.07;64.82;101009.88;5053282;28;20090;-69
2023/09/23 10:36:36;;;;;;;9.13;4.40;;;;;;;22.09;63.30;101001.53;5053289;28;20182;-69
2023/09/23 10:39:15;;;;;;;9.75;4.30;;;;;;;22.11;62.50;100999.41;5053277;28;20033;-67
2023/09/23 10:41:41;;;;;;;11.57;6.25;;;;;;;22.13;62.36;100997.28;5053247;28;20075;-66
2023/09/23 10:44:07;;;;;;;6.50;4.55;;;;;;;22.20;61.71;100998.00;5053258;28;20108;-67
2023/09/23 10:46:33;;;;;;;9.68;4.78;;;;;;;22.18;62.23;100978.41;5053127;28;20464;-68
2023/09/23 10:49:01;;;;;;;8.90;4.38;;;;;;;22.23;61.33;100976.66;5052745;28;20031;-66
2023/09/23 10:51:27;;;;;;;9.57;4.78;;;;;;;22.30;62.36;100986.59;5051933;28;20376;-67
2023/09/23 10:53:55;;;;;;;17.45;9.10;;;;;;;22.36;61.48;100989.19;5052769;28;20050;-66
2023/09/23 10:56:22;;;;;;;12.15;5.00;;;;;;;22.30;60.76;100965.69;5053081;28;20357;-66
2023/09/23 10:58:51;;;;;;;13.30;4.43;;;;;;;22.49;60.58;100988.94;5053286;28;20060;-68
2023/09/23 11:01:21;;;;;;;9.77;4.60;;;;;;;22.52;60.75;100977.59;5052002;28;20033;-68
2023/09/23 11:03:47;;;;;;;7.85;4.32;;;;;;;22.52;60.77;100974.88;5052104;28;20032;-68
2023/09/23 11:06:16;;;;;;;10.07;5.32;;;;;;;22.28;60.70;100939.88;5053439;28;20029;-66
2023/09/23 11:08:42;;;;;;;19.55;5.47;;;;;;;22.36;61.38;100975.63;5051493;28;20056;-68
2023/09/23 11:11:11;;;;;;;11.35;4.38;;;;;;;22.41;60.52;100966.75;5067025;28;20033;-67
2023/09/23 11:13:36;;;;;;;;;;;;;;;22.57;60.67;100974.22;5059301;28;20028;-69
2023/09/23 11:16:09;;;;;;;16.42;5.15;;;;;;;22.49;60.91;100948.22;5052750;28;20257;-68